sensor_id;sensor_type;location;lat;lon;timestamp;pressure;altitude;pressure_sealevel;temperature;humidity
68988;BME280;56038;46.080;11.116;2023-11-21T00:03:01;98868.63;;;5.58;100.00
68988;BME280;56038;46.080;11.116;2023-11-21T00:08:04;98861.75;;;5.57;100.00
68988;BME280;56038;46.080;11.116;2023-11-21T00:13:06;98856.63;;;5.55;100.00
68988;BME280;56038;46.080;11.116;2023-11-21T00:18:10;98856.66;;;5.54;100.00
68988;BME280;56038;46.080;11.116;2023-11-21T00:23:11;98843.72;;;5.52;100.00
68988;BME280;56038;46.080;11.116;2023-11-21T00:28:13;98858.69;;;5.43;100.00
68988;BME280;56038;46.080;11.116;2023-11-21T00:33:16;98865.75;;;5.37;100.00
68988;BME280;56038;46.080;11.116;2023-11-21T00:38:18;98878.72;;;5.36;100.00
68988;BME280;56038;46.080;11.116;2023-11-21T00:43:20;98867.50;;;5.35;100.00
68988;BME280;56038;46.080;11.116;2023-11-21T00:48:24;98866.66;;;5.35;100.00
68988;BME280;56038;46.080;11.116;2023-11-21T00:53:26;98866.00;;;5.28;100.00
68988;BME280;56038;46.080;11.116;2023-11-21T00:58:28;98854.03;;;5.24;100.00
68988;BME280;56038;46.080;11.116;2023-11-21T01:03:32;98857.56;;;5.20;100.00
68988;BME280;56038;46.080;11.116;2023-11-21T01:08:34;98850.69;;;5.21;100.00
68988;BME280;56038;46.080;11.116;2023-11-21T01:13:36;98856.88;;;5.14;100.00
68988;BME280;56038;46.080;11.116;2023-11-21T01:18:39;98846.63;;;5.10;100.00
68988;BME280;56038;46.080;11.116;2023-11-21T01:23:41;98852.91;;;5.00;100.00
68988;BME280;56038;46.080;11.116;2023-11-21T01:28:42;98857.53;;;4.89;100.00
68988;BME280;56038;46.080;11.116;2023-11-21T01:33:45;98854.91;;;4.91;100.00
68988;BME280;56038;46.080;11.116;2023-11-21T01:38:47;98837.56;;;4.94;100.00
68988;BME280;56038;46.080;11.116;2023-11-21T01:43:49;98842.75;;;4.94;100.00
68988;BME280;56038;46.080;11.116;2023-11-21T01:48:53;98850.53;;;4.93;100.00
68988;BME280;56038;46.080;11.116;2023-11-21T01:53:55;98844.56;;;4.91;100.00
68988;BME280;56038;46.080;11.116;2023-11-21T01:58:57;98848.09;;;4.87;100.00
68988;BME280;56038;46.080;11.116;2023-11-21T02:04:00;98856.09;;;4.77;100.00
68988;BME280;56038;46.080;11.116;2023-11-21T02:09:02;98851.91;;;4.73;100.00
68988;BME280;56038;46.080;11.116;2023-11-21T02:14:05;98844.94;;;4.75;100.00
68988;BME280;56038;46.080;11.116;2023-11-21T02:19:11;98828.63;;;4.72;100.00
68988;BME280;56038;46.080;11.116;2023-11-21T02:24:20;98820.19;;;4.65;100.00
68988;BME280;56038;46.080;11.116;2023-11-21T02:29:21;98821.25;;;4.58;100.00
68988;BME280;56038;46.080;11.116;2023-11-21T02:34:28;98816.19;;;4.52;100.00
68988;BME280;56038;46.080;11.116;2023-11-21T02:39:31;98806.88;;;4.46;100.00
68988;BME280;56038;46.080;11.116;2023-11-21T02:44:32;98789.69;;;4.44;100.00
68988;BME280;56038;46.080;11.116;2023-11-21T02:49:35;98797.53;;;4.39;100.00
68988;BME280;56038;46.080;11.116;2023-11-21T02:54:38;98789.09;;;4.33;100.00
68988;BME280;56038;46.080;11.116;2023-11-21T02:59:40;98780.72;;;4.23;100.00
68988;BME280;56038;46.080;11.116;2023-11-21T03:04:41;98786.72;;;4.24;100.00
68988;BME280;56038;46.080;11.116;2023-11-21T03:09:45;98777.28;;;4.22;100.00
68988;BME280;56038;46.080;11.116;2023-11-21T03:14:47;98776.47;;;4.20;100.00
68988;BME280;56038;46.080;11.116;2023-11-21T03:19:49;98774.91;;;4.15;100.00
68988;BME280;56038;46.080;11.116;2023-11-21T03:24:52;98773.31;;;4.08;100.00
68988;BME280;56038;46.080;11.116;2023-11-21T03:29:54;98776.84;;;4.05;100.00
68988;BME280;56038;46.080;11.116;2023-11-21T03:34:57;98764.06;;;3.99;100.00
68988;BME280;56038;46.080;11.116;2023-11-21T03:40:00;98771.81;;;3.99;100.00
68988;BME280;56038;46.080;11.116;2023-11-21T03:45:05;98770.16;;;3.97;100.00
68988;BME280;56038;46.080;11.116;2023-11-21T03:50:07;98764.06;;;3.99;100.00
68988;BME280;56038;46.080;11.116;2023-11-21T03:55:12;98764.97;;;3.98;100.00
68988;BME280;56038;46.080;11.116;2023-11-21T04:00:15;98762.44;;;3.94;100.00
68988;BME280;56038;46.080;11.116;2023-11-21T04:05:17;98764.34;;;3.87;100.00
68988;BME280;56038;46.080;11.116;2023-11-21T04:10:20;98760.19;;;3.81;100.00
68988;BME280;56038;46.080;11.116;2023-11-21T04:15:22;98762.88;;;3.75;100.00
68988;BME280;56038;46.080;11.116;2023-11-21T04:20:24;98764.69;;;3.72;100.00
68988;BME280;56038;46.080;11.116;2023-11-21T04:25:27;98759.56;;;3.70;100.00
68988;BME280;56038;46.080;11.116;2023-11-21T04:30:29;98763.81;;;3.73;100.00
68988;BME280;56038;46.080;11.116;2023-11-21T04:35:31;98755.25;;;3.71;100.00
68988;BME280;56038;46.080;11.116;2023-11-21T04:40:34;98770.78;;;3.69;100.00
68988;BME280;56038;46.080;11.116;2023-11-21T04:45:36;98769.16;;;3.65;100.00
68988;BME280;56038;46.080;11.116;2023-11-21T04:50:37;98771.78;;;3.64;100.00
68988;BME280;56038;46.080;11.116;2023-11-21T04:55:41;98767.47;;;3.63;100.00
68988;BME280;56038;46.080;11.116;2023-11-21T05:00:43;98771.75;;;3.65;100.00
68988;BME280;56038;46.080;11.116;2023-11-21T05:05:44;98772.50;;;3.69;100.00
68988;BME280;56038;46.080;11.116;2023-11-21T05:10:47;98771.56;;;3.73;100.00
68988;BME280;56038;46.080;11.116;2023-11-21T05:15:50;98775.78;;;3.75;100.00
68988;BME280;56038;46.080;11.116;2023-11-21T05:20:52;98771.47;;;3.76;100.00
68988;BME280;56038;46.080;11.116;2023-11-21T05:25:55;98782.69;;;3.75;100.00
68988;BME280;56038;46.080;11.116;2023-11-21T05:30:57;98778.41;;;3.74;100.00
68988;BME280;56038;46.080;11.116;2023-11-21T05:35:59;98771.56;;;3.73;100.00
68988;BME280;56038;46.080;11.116;2023-11-21T05:41:02;98774.13;;;3.73;100.00
68988;BME280;56038;46.080;11.116;2023-11-21T05:46:04;98761.16;;;3.76;100.00
68988;BME280;56038;46.080;11.116;2023-11-21T05:51:07;98772.28;;;3.78;100.00
68988;BME280;56038;46.080;11.116;2023-11-21T05:56:11;98774.88;;;3.78;100.00
68988;BME280;56038;46.080;11.116;2023-11-21T06:01:13;98783.50;;;3.77;100.00
68988;BME280;56038;46.080;11.116;2023-11-21T06:06:15;98784.44;;;3.74;100.00
68988;BME280;56038;46.080;11.116;2023-11-21T06:11:18;98786.94;;;3.79;100.00
68988;BME280;56038;46.080;11.116;2023-11-21T06:16:20;98781.72;;;3.80;100.00
68988;BME280;56038;46.080;11.116;2023-11-21T06:21:22;98783.31;;;3.86;100.00
68988;BME280;56038;46.080;11.116;2023-11-21T06:26:25;98783.25;;;3.89;100.00
68988;BME280;56038;46.080;11.116;2023-11-21T06:31:29;98785.72;;;3.94;100.00
68988;BME280;56038;46.080;11.116;2023-11-21T06:36:33;98776.03;;;4.03;100.00
68988;BME280;56038;46.080;11.116;2023-11-21T06:41:36;98787.97;;;4.07;100.00
68988;BME280;56038;46.080;11.116;2023-11-21T06:46:39;98778.41;;;4.12;100.00
68988;BME280;56038;46.080;11.116;2023-11-21T06:51:42;98777.19;;;4.26;100.00
68988;BME280;56038;46.080;11.116;2023-11-21T06:56:46;98774.47;;;4.32;100.00
68988;BME280;56038;46.080;11.116;2023-11-21T07:01:49;98781.44;;;4.30;100.00
68988;BME280;56038;46.080;11.116;2023-11-21T07:06:51;98783.13;;;4.31;100.00
68988;BME280;56038;46.080;11.116;2023-11-21T07:11:55;98782.03;;;4.39;100.00
68988;BME280;56038;46.080;11.116;2023-11-21T07:16:57;98780.16;;;4.46;100.00
68988;BME280;56038;46.080;11.116;2023-11-21T07:21:59;98768.75;;;4.53;100.00
68988;BME280;56038;46.080;11.116;2023-11-21T07:27:02;98764.34;;;4.58;100.00
68988;BME280;56038;46.080;11.116;2023-11-21T07:32:05;98768.31;;;4.70;100.00
68988;BME280;56038;46.080;11.116;2023-11-21T07:37:06;98774.03;;;4.82;100.00
68988;BME280;56038;46.080;11.116;2023-11-21T07:42:10;98772.09;;;4.91;100.00
68988;BME280;56038;46.080;11.116;2023-11-21T07:47:12;98772.59;;;5.03;100.00
68988;BME280;56038;46.080;11.116;2023-11-21T07:52:14;98775.59;;;5.21;100.00
68988;BME280;56038;46.080;11.116;2023-11-21T07:57:17;98780.41;;;5.33;100.00
68988;BME280;56038;46.080;11.116;2023-11-21T08:02:19;98765.41;;;5.44;100.00
68988;BME280;56038;46.080;11.116;2023-11-21T08:07:21;98762.31;;;5.61;100.00
68988;BME280;56038;46.080;11.116;2023-11-21T08:12:24;98750.00;;;5.69;100.00
68988;BME280;56038;46.080;11.116;2023-11-21T08:17:28;98736.00;;;6.29;100.00
68988;BME280;56038;46.080;11.116;2023-11-21T08:22:29;98739.84;;;6.44;100.00
68988;BME280;56038;46.080;11.116;2023-11-21T08:27:33;98738.28;;;6.65;100.00
68988;BME280;56038;46.080;11.116;2023-11-21T08:32:35;98721.44;;;6.51;100.00
68988;BME280;56038;46.080;11.116;2023-11-21T08:37:40;98727.09;;;6.38;100.00
68988;BME280;56038;46.080;11.116;2023-11-21T08:42:43;98723.81;;;6.33;100.00
68988;BME280;56038;46.080;11.116;2023-11-21T08:47:46;98722.84;;;6.35;100.00
68988;BME280;56038;46.080;11.116;2023-11-21T08:52:48;98718.47;;;6.37;100.00
68988;BME280;56038;46.080;11.116;2023-11-21T08:57:51;98710.69;;;6.37;100.00
68988;BME280;56038;46.080;11.116;2023-11-21T09:02:53;98712.31;;;6.40;100.00
68988;BME280;56038;46.080;11.116;2023-11-21T09:07:55;98711.19;;;6.47;100.00
68988;BME280;56038;46.080;11.116;2023-11-21T09:12:58;98711.16;;;6.48;100.00
68988;BME280;56038;46.080;11.116;2023-11-21T09:18:00;98712.06;;;6.47;100.00
68988;BME280;56038;46.080;11.116;2023-11-21T09:23:02;98718.94;;;6.48;100.00
68988;BME280;56038;46.080;11.116;2023-11-21T09:28:05;98723.25;;;6.49;100.00
68988;BME280;56038;46.080;11.116;2023-11-21T09:33:08;98724.81;;;6.53;100.00
68988;BME280;56038;46.080;11.116;2023-11-21T09:38:11;98710.78;;;6.59;100.00
68988;BME280;56038;46.080;11.116;2023-11-21T09:43:16;98703.84;;;6.59;100.00
68988;BME280;56038;46.080;11.116;2023-11-21T09:48:19;98701.97;;;6.65;100.00
68988;BME280;56038;46.080;11.116;2023-11-21T09:53:22;98694.78;;;6.71;100.00
68988;BME280;56038;46.080;11.116;2023-11-21T09:58:27;98697.00;;;6.82;100.00
68988;BME280;56038;46.080;11.116;2023-11-21T10:03:28;98691.53;;;6.89;100.00
68988;BME280;56038;46.080;11.116;2023-11-21T10:08:32;98678.06;;;7.03;100.00
68988;BME280;56038;46.080;11.116;2023-11-21T10:13:35;98660.22;;;7.17;100.00
68988;BME280;56038;46.080;11.116;2023-11-21T10:18:38;98660.28;;;7.38;100.00
68988;BME280;56038;46.080;11.116;2023-11-21T10:23:41;98640.91;;;7.46;100.00
68988;BME280;56038;46.080;11.116;2023-11-21T10:28:56;98635.41;;;7.54;100.00
68988;BME280;56038;46.080;11.116;2023-11-21T10:34:12;98628.22;;;7.61;100.00
68988;BME280;56038;46.080;11.116;2023-11-21T10:39:14;98626.34;;;7.64;100.00
68988;BME280;56038;46.080;11.116;2023-11-21T10:44:20;98610.59;;;7.67;100.00
68988;BME280;56038;46.080;11.116;2023-11-21T10:49:25;98613.75;;;7.75;100.00
68988;BME280;56038;46.080;11.116;2023-11-21T10:54:27;98603.34;;;7.75;100.00
68988;BME280;56038;46.080;11.116;2023-11-21T10:59:31;98602.25;;;7.81;100.00
68988;BME280;56038;46.080;11.116;2023-11-21T11:04:34;98605.50;;;7.86;100.00
68988;BME280;56038;46.080;11.116;2023-11-21T11:09:38;98605.00;;;7.98;100.00
68988;BME280;56038;46.080;11.116;2023-11-21T11:14:42;98597.00;;;8.03;100.00
68988;BME280;56038;46.080;11.116;2023-11-21T11:19:45;98593.47;;;8.04;100.00
68988;BME280;56038;46.080;11.116;2023-11-21T11:25:03;98588.75;;;8.14;100.00
68988;BME280;56038;46.080;11.116;2023-11-21T11:30:28;98579.81;;;8.19;100.00
68988;BME280;56038;46.080;11.116;2023-11-21T11:35:45;98578.34;;;8.14;100.00
68988;BME280;56038;46.080;11.116;2023-11-21T11:40:53;98572.84;;;8.20;100.00
68988;BME280;56038;46.080;11.116;2023-11-21T11:45:57;98574.22;;;8.28;100.00
68988;BME280;56038;46.080;11.116;2023-11-21T11:51:04;98567.03;;;8.35;100.00
68988;BME280;56038;46.080;11.116;2023-11-21T11:56:26;98564.47;;;8.33;100.00
68988;BME280;56038;46.080;11.116;2023-11-21T12:01:32;98553.75;;;8.41;100.00
68988;BME280;56038;46.080;11.116;2023-11-21T12:06:34;98549.19;;;8.46;100.00
68988;BME280;56038;46.080;11.116;2023-11-21T12:11:37;98544.00;;;8.65;100.00
68988;BME280;56038;46.080;11.116;2023-11-21T12:16:40;98538.66;;;8.68;100.00
68988;BME280;56038;46.080;11.116;2023-11-21T12:21:43;98529.94;;;8.69;100.00
68988;BME280;56038;46.080;11.116;2023-11-21T12:26:45;98538.44;;;8.73;100.00
68988;BME280;56038;46.080;11.116;2023-11-21T12:31:50;98538.84;;;8.82;100.00
68988;BME280;56038;46.080;11.116;2023-11-21T12:36:52;98527.94;;;8.93;100.00
68988;BME280;56038;46.080;11.116;2023-11-21T12:41:55;98528.50;;;8.99;100.00
68988;BME280;56038;46.080;11.116;2023-11-21T12:46:59;98532.09;;;10.02;100.00
68988;BME280;56038;46.080;11.116;2023-11-21T12:52:01;98522.50;;;10.03;100.00
68988;BME280;56038;46.080;11.116;2023-11-21T12:57:04;98515.63;;;10.02;100.00
68988;BME280;56038;46.080;11.116;2023-11-21T13:02:12;98518.38;;;9.99;100.00
68988;BME280;56038;46.080;11.116;2023-11-21T13:07:14;98518.47;;;9.97;100.00
68988;BME280;56038;46.080;11.116;2023-11-21T13:12:23;98508.88;;;9.98;100.00
68988;BME280;56038;46.080;11.116;2023-11-21T13:17:26;98510.19;;;9.89;100.00
68988;BME280;56038;46.080;11.116;2023-11-21T13:22:28;98504.22;;;9.70;100.00
68988;BME280;56038;46.080;11.116;2023-11-21T13:27:31;98510.28;;;9.53;100.00
68988;BME280;56038;46.080;11.116;2023-11-21T13:32:35;98514.00;;;9.30;100.00
68988;BME280;56038;46.080;11.116;2023-11-21T13:37:37;98506.16;;;9.30;100.00
68988;BME280;56038;46.080;11.116;2023-11-21T13:42:39;98518.75;;;9.22;100.00
68988;BME280;56038;46.080;11.116;2023-11-21T13:47:45;98511.44;;;9.11;100.00
68988;BME280;56038;46.080;11.116;2023-11-21T13:52:47;98503.78;;;9.08;100.00
68988;BME280;56038;46.080;11.116;2023-11-21T13:57:49;98507.78;;;9.15;100.00
68988;BME280;56038;46.080;11.116;2023-11-21T14:02:54;98511.94;;;9.19;100.00
68988;BME280;56038;46.080;11.116;2023-11-21T14:08:00;98511.69;;;9.24;100.00
68988;BME280;56038;46.080;11.116;2023-11-21T14:13:05;98509.94;;;9.24;100.00
68988;BME280;56038;46.080;11.116;2023-11-21T14:18:08;98508.41;;;9.20;100.00
68988;BME280;56038;46.080;11.116;2023-11-21T14:23:12;98511.25;;;9.16;100.00
68988;BME280;56038;46.080;11.116;2023-11-21T14:28:14;98502.69;;;9.12;100.00
68988;BME280;56038;46.080;11.116;2023-11-21T14:33:17;98508.28;;;9.05;100.00
68988;BME280;56038;46.080;11.116;2023-11-21T14:38:19;98514.16;;;8.91;100.00
68988;BME280;56038;46.080;11.116;2023-11-21T14:43:21;98511.97;;;8.82;100.00
68988;BME280;56038;46.080;11.116;2023-11-21T14:48:24;98515.56;;;8.79;100.00
68988;BME280;56038;46.080;11.116;2023-11-21T14:53:42;98518.72;;;8.67;100.00
68988;BME280;56038;46.080;11.116;2023-11-21T14:58:54;98524.44;;;8.56;100.00
68988;BME280;56038;46.080;11.116;2023-11-21T15:03:58;98516.97;;;8.49;100.00
68988;BME280;56038;46.080;11.116;2023-11-21T15:09:00;98526.81;;;8.42;100.00
68988;BME280;56038;46.080;11.116;2023-11-21T15:14:16;98535.84;;;8.33;100.00
68988;BME280;56038;46.080;11.116;2023-11-21T15:19:25;98532.97;;;8.21;100.00
68988;BME280;56038;46.080;11.116;2023-11-21T15:24:28;98528.59;;;8.01;100.00
68988;BME280;56038;46.080;11.116;2023-11-21T15:29:30;98548.97;;;7.91;100.00
68988;BME280;56038;46.080;11.116;2023-11-21T15:34:36;98558.06;;;7.81;100.00
68988;BME280;56038;46.080;11.116;2023-11-21T15:39:38;98562.91;;;7.68;100.00
68988;BME280;56038;46.080;11.116;2023-11-21T15:44:40;98551.09;;;7.61;100.00
68988;BME280;56038;46.080;11.116;2023-11-21T15:49:44;98553.94;;;7.55;100.00
68988;BME280;56038;46.080;11.116;2023-11-21T15:54:46;98568.28;;;7.43;100.00
68988;BME280;56038;46.080;11.116;2023-11-21T15:59:48;98560.22;;;7.49;100.00
68988;BME280;56038;46.080;11.116;2023-11-21T16:04:51;98587.59;;;7.36;100.00
68988;BME280;56038;46.080;11.116;2023-11-21T16:09:53;98578.44;;;7.28;100.00
68988;BME280;56038;46.080;11.116;2023-11-21T16:14:55;98597.81;;;7.19;100.00
68988;BME280;56038;46.080;11.116;2023-11-21T16:19:58;98597.31;;;7.09;100.00
68988;BME280;56038;46.080;11.116;2023-11-21T16:25:00;98606.50;;;6.96;100.00
68988;BME280;56038;46.080;11.116;2023-11-21T16:30:05;98615.78;;;6.78;100.00
68988;BME280;56038;46.080;11.116;2023-11-21T16:35:10;98622.06;;;6.73;100.00
68988;BME280;56038;46.080;11.116;2023-11-21T16:40:14;98622.97;;;6.72;100.00
68988;BME280;56038;46.080;11.116;2023-11-21T16:45:16;98636.84;;;6.71;100.00
68988;BME280;56038;46.080;11.116;2023-11-21T16:50:19;98642.53;;;6.57;100.00
68988;BME280;56038;46.080;11.116;2023-11-21T16:55:21;98658.94;;;6.57;100.00
68988;BME280;56038;46.080;11.116;2023-11-21T17:00:24;98658.75;;;6.39;100.00
68988;BME280;56038;46.080;11.116;2023-11-21T17:05:27;98663.03;;;6.40;100.00
68988;BME280;56038;46.080;11.116;2023-11-21T17:10:29;98675.09;;;6.41;100.00
68988;BME280;56038;46.080;11.116;2023-11-21T17:15:31;98690.78;;;6.38;100.00
68988;BME280;56038;46.080;11.116;2023-11-21T17:20:34;98694.44;;;6.30;100.00
68988;BME280;56038;46.080;11.116;2023-11-21T17:25:39;98701.81;;;6.18;100.00
68988;BME280;56038;46.080;11.116;2023-11-21T17:30:41;98715.69;;;6.17;100.00
68988;BME280;56038;46.080;11.116;2023-11-21T17:35:44;98718.31;;;6.15;100.00
68988;BME280;56038;46.080;11.116;2023-11-21T17:40:46;98722.63;;;6.16;100.00
68988;BME280;56038;46.080;11.116;2023-11-21T17:45:48;98728.84;;;6.11;100.00
68988;BME280;56038;46.080;11.116;2023-11-21T17:50:53;98741.09;;;6.06;100.00
68988;BME280;56038;46.080;11.116;2023-11-21T17:55:55;98754.22;;;6.01;100.00
68988;BME280;56038;46.080;11.116;2023-11-21T18:00:57;98739.69;;;5.95;100.00
68988;BME280;56038;46.080;11.116;2023-11-21T18:06:00;98760.59;;;5.91;100.00
68988;BME280;56038;46.080;11.116;2023-11-21T18:11:02;98749.81;;;5.75;100.00
68988;BME280;56038;46.080;11.116;2023-11-21T18:16:05;98752.50;;;5.72;100.00
68988;BME280;56038;46.080;11.116;2023-11-21T18:21:09;98759.47;;;5.70;100.00
68988;BME280;56038;46.080;11.116;2023-11-21T18:26:16;98772.09;;;5.53;100.00
68988;BME280;56038;46.080;11.116;2023-11-21T18:31:18;98781.81;;;5.45;100.00
68988;BME280;56038;46.080;11.116;2023-11-21T18:36:21;98773.38;;;5.38;100.00
68988;BME280;56038;46.080;11.116;2023-11-21T18:41:23;98795.78;;;5.39;100.00
68988;BME280;56038;46.080;11.116;2023-11-21T18:46:25;98785.53;;;5.34;100.00
68988;BME280;56038;46.080;11.116;2023-11-21T18:51:28;98782.19;;;5.31;100.00
68988;BME280;56038;46.080;11.116;2023-11-21T18:56:30;98784.81;;;5.29;100.00
68988;BME280;56038;46.080;11.116;2023-11-21T19:01:32;98779.66;;;5.29;100.00
68988;BME280;56038;46.080;11.116;2023-11-21T19:06:35;98776.41;;;5.23;100.00
68988;BME280;56038;46.080;11.116;2023-11-21T19:11:37;98775.38;;;5.28;100.00
68988;BME280;56038;46.080;11.116;2023-11-21T19:16:39;98764.44;;;5.17;100.00
68988;BME280;56038;46.080;11.116;2023-11-21T19:21:43;98767.31;;;5.08;100.00
68988;BME280;56038;46.080;11.116;2023-11-21T19:26:44;98770.22;;;4.96;100.00
68988;BME280;56038;46.080;11.116;2023-11-21T19:31:47;98766.41;;;4.78;100.00
68988;BME280;56038;46.080;11.116;2023-11-21T19:36:50;98770.03;;;4.71;100.00
68988;BME280;56038;46.080;11.116;2023-11-21T19:41:52;98769.13;;;4.73;100.00
68988;BME280;56038;46.080;11.116;2023-11-21T19:46:54;98766.53;;;4.73;100.00
68988;BME280;56038;46.080;11.116;2023-11-21T19:52:00;98765.78;;;4.68;100.00
68988;BME280;56038;46.080;11.116;2023-11-21T19:57:04;98769.34;;;4.64;100.00
68988;BME280;56038;46.080;11.116;2023-11-21T20:02:07;98766.84;;;4.61;100.00
68988;BME280;56038;46.080;11.116;2023-11-21T20:07:13;98785.22;;;4.50;100.00
68988;BME280;56038;46.080;11.116;2023-11-21T20:12:18;98792.94;;;4.52;100.00
68988;BME280;56038;46.080;11.116;2023-11-21T20:17:20;98792.94;;;4.52;100.00
68988;BME280;56038;46.080;11.116;2023-11-21T20:22:24;98802.75;;;4.38;100.00
68988;BME280;56038;46.080;11.116;2023-11-21T20:27:26;98798.81;;;4.23;100.00
68988;BME280;56038;46.080;11.116;2023-11-21T20:32:30;98804.00;;;4.21;100.00
68988;BME280;56038;46.080;11.116;2023-11-21T20:37:34;98807.69;;;4.13;100.00
68988;BME280;56038;46.080;11.116;2023-11-21T20:42:36;98812.03;;;4.11;100.00
68988;BME280;56038;46.080;11.116;2023-11-21T20:47:42;98815.34;;;4.16;100.00
68988;BME280;56038;46.080;11.116;2023-11-21T20:52:46;98843.78;;;4.16;100.00
68988;BME280;56038;46.080;11.116;2023-11-21T20:57:48;98847.25;;;4.15;100.00
68988;BME280;56038;46.080;11.116;2023-11-21T21:02:50;98865.38;;;4.13;100.00
68988;BME280;56038;46.080;11.116;2023-11-21T21:07:54;98857.53;;;4.18;100.00
68988;BME280;56038;46.080;11.116;2023-11-21T21:12:58;98857.44;;;4.21;100.00
68988;BME280;56038;46.080;11.116;2023-11-21T21:18:01;98865.16;;;4.22;100.00
68988;BME280;56038;46.080;11.116;2023-11-21T21:23:07;98848.78;;;4.24;100.00
68988;BME280;56038;46.080;11.116;2023-11-21T21:28:08;98858.97;;;4.30;100.00
68988;BME280;56038;46.080;11.116;2023-11-21T21:33:10;98868.50;;;4.28;100.00
68988;BME280;56038;46.080;11.116;2023-11-21T21:38:13;98880.84;;;4.15;100.00
68988;BME280;56038;46.080;11.116;2023-11-21T21:43:18;98884.63;;;4.00;100.00
68988;BME280;56038;46.080;11.116;2023-11-21T21:48:23;98879.19;;;4.12;100.00
68988;BME280;56038;46.080;11.116;2023-11-21T21:53:26;98879.13;;;4.15;100.00
68988;BME280;56038;46.080;11.116;2023-11-21T21:58:28;98883.44;;;4.15;100.00
68988;BME280;56038;46.080;11.116;2023-11-21T22:03:30;98884.41;;;4.11;100.00
68988;BME280;56038;46.080;11.116;2023-11-21T22:08:33;98878.38;;;4.10;100.00
68988;BME280;56038;46.080;11.116;2023-11-21T22:13:35;98894.88;;;4.03;100.00
68988;BME280;56038;46.080;11.116;2023-11-21T22:18:37;98887.25;;;3.99;100.00
68988;BME280;56038;46.080;11.116;2023-11-21T22:23:40;98889.91;;;3.96;100.00
68988;BME280;56038;46.080;11.116;2023-11-21T22:28:42;98887.47;;;3.88;100.00
68988;BME280;56038;46.080;11.116;2023-11-21T22:33:44;98885.88;;;3.82;100.00
68988;BME280;56038;46.080;11.116;2023-11-21T22:38:47;98883.38;;;3.76;100.00
68988;BME280;56038;46.080;11.116;2023-11-21T22:43:49;98884.25;;;3.77;100.00
68988;BME280;56038;46.080;11.116;2023-11-21T22:48:50;98879.97;;;3.76;100.00
68988;BME280;56038;46.080;11.116;2023-11-21T22:53:53;98879.81;;;3.83;100.00
68988;BME280;56038;46.080;11.116;2023-11-21T22:58:55;98885.66;;;3.91;100.00
68988;BME280;56038;46.080;11.116;2023-11-21T23:03:57;98875.41;;;3.88;100.00
68988;BME280;56038;46.080;11.116;2023-11-21T23:09:00;98866.78;;;3.88;100.00
68988;BME280;56038;46.080;11.116;2023-11-21T23:14:03;98878.81;;;3.89;100.00
68988;BME280;56038;46.080;11.116;2023-11-21T23:19:04;98883.72;;;4.03;100.00
68988;BME280;56038;46.080;11.116;2023-11-21T23:24:08;98877.34;;;4.17;100.00
68988;BME280;56038;46.080;11.116;2023-11-21T23:29:11;98871.91;;;4.30;100.00
68988;BME280;56038;46.080;11.116;2023-11-21T23:34:13;98875.13;;;4.39;100.00
68988;BME280;56038;46.080;11.116;2023-11-21T23:39:16;98880.25;;;4.41;100.00
68988;BME280;56038;46.080;11.116;2023-11-21T23:44:18;98885.28;;;4.47;100.00
68988;BME280;56038;46.080;11.116;2023-11-21T23:49:21;98886.81;;;4.56;100.00
68988;BME280;56038;46.080;11.116;2023-11-21T23:54:24;98876.41;;;4.59;100.00
68988;BME280;56038;46.080;11.116;2023-11-21T23:59:26;98886.63;;;4.63;100.00
